createdAt,value
2023-02-22T00:00:59.791Z,12.99
2023-02-22T00:03:32.391Z,13.10
2023-02-22T00:06:04.298Z,13.08
2023-02-22T00:08:34.265Z,13.10
2023-02-22T00:11:10.218Z,13.17
2023-02-22T00:13:38.554Z,13.02
2023-02-22T00:16:06.988Z,13.07
2023-02-22T00:18:34.017Z,12.89
2023-02-22T00:21:01.922Z,12.94
2023-02-22T00:23:31.809Z,12.98
2023-02-22T00:26:01.155Z,12.95
2023-02-22T00:28:28.484Z,12.61
2023-02-22T00:30:55.536Z,12.60
2023-02-22T00:33:22.743Z,12.68
2023-02-22T00:35:49.773Z,12.64
2023-02-22T00:38:19.296Z,12.80
2023-02-22T00:40:46.475Z,12.28
2023-02-22T00:43:14.408Z,12.74
2023-02-22T00:45:42.506Z,12.64
2023-02-22T00:48:10.485Z,12.69
2023-02-22T00:50:37.870Z,12.59
2023-02-22T00:53:07.257Z,12.59
2023-02-22T00:55:37.013Z,12.68
2023-02-22T00:58:05.704Z,12.59
2023-02-22T01:00:40.064Z,12.59
2023-02-22T01:03:10.586Z,12.46
2023-02-22T01:05:38.259Z,12.53
2023-02-22T01:08:07.676Z,12.48
2023-02-22T01:10:36.478Z,12.39
2023-02-22T01:13:09.145Z,12.37
2023-02-22T01:15:39.417Z,12.40
2023-02-22T01:18:08.016Z,12.52
2023-02-22T01:20:35.891Z,12.35
2023-02-22T01:23:07.028Z,12.39
2023-02-22T01:25:35.817Z,12.40
2023-02-22T01:28:05.672Z,12.31
2023-02-22T01:30:36.120Z,12.40
2023-02-22T01:33:06.925Z,12.29
2023-02-22T01:35:38.478Z,12.31
2023-02-22T01:38:06.943Z,12.08
2023-02-22T01:40:38.560Z,12.29
2023-02-22T01:43:21.095Z,12.28
2023-02-22T01:46:01.433Z,12.34
2023-02-22T01:48:40.857Z,12.18
2023-02-22T01:51:23.449Z,12.34
2023-02-22T01:54:13.554Z,12.33
2023-02-22T01:56:47.944Z,12.19
2023-02-22T01:59:15.063Z,12.08
2023-02-22T02:01:45.650Z,11.95
2023-02-22T02:04:25.840Z,12.07
2023-02-22T02:06:59.990Z,11.94
2023-02-22T02:09:59.189Z,11.97
2023-02-22T02:12:30.422Z,11.85
2023-02-22T02:15:28.961Z,11.96
2023-02-22T02:18:00.810Z,11.85
2023-02-22T02:21:41.061Z,11.93
2023-02-22T02:24:51.580Z,12.07
2023-02-22T02:27:24.274Z,11.84
2023-02-22T02:30:29.755Z,11.88
2023-02-22T02:33:31.614Z,11.92
2023-02-22T02:36:12.502Z,11.80
2023-02-22T02:39:19.389Z,12.05
2023-02-22T02:41:50.996Z,11.88
2023-02-22T02:44:27.956Z,11.89
2023-02-22T02:47:25.297Z,11.92
2023-02-22T02:49:58.481Z,11.72
2023-02-22T02:52:27.443Z,11.50
2023-02-22T02:54:55.750Z,11.52
2023-02-22T02:57:24.637Z,11.41
2023-02-22T02:59:52.009Z,11.33
2023-02-22T03:02:41.765Z,11.82
2023-02-22T03:05:31.854Z,11.65
2023-02-22T03:08:59.063Z,11.64
2023-02-22T03:11:35.124Z,11.29
2023-02-22T03:14:10.863Z,11.36
2023-02-22T03:16:59.127Z,11.39
2023-02-22T03:19:45.903Z,11.51
2023-02-22T03:22:15.038Z,11.28
2023-02-22T03:25:12.378Z,11.41
2023-02-22T03:27:48.665Z,11.36
2023-02-22T03:30:26.782Z,11.27
2023-02-22T03:33:01.569Z,11.28
2023-02-22T03:35:48.158Z,11.35
2023-02-22T03:38:20.271Z,11.30
2023-02-22T03:40:54.391Z,11.14
2023-02-22T03:43:30.008Z,11.22
2023-02-22T03:46:03.711Z,11.29
2023-02-22T03:48:44.134Z,11.38
2023-02-22T03:51:17.182Z,11.20
2023-02-22T03:53:48.402Z,11.11
2023-02-22T03:56:23.693Z,11.23
2023-02-22T03:58:52.031Z,11.14
2023-02-22T04:01:19.963Z,11.00
2023-02-22T04:03:47.587Z,11.01
2023-02-22T04:06:16.482Z,11.08
2023-02-22T04:08:45.111Z,11.03
2023-02-22T04:11:12.129Z,10.92
2023-02-22T04:13:39.826Z,11.05
2023-02-22T04:16:07.104Z,10.89
2023-02-22T04:18:35.752Z,10.87
2023-02-22T04:21:03.675Z,10.94
2023-02-22T04:23:37.921Z,10.92
2023-02-22T04:26:06.033Z,10.87
2023-02-22T04:28:33.477Z,10.93
2023-02-22T04:31:19.503Z,10.86
2023-02-22T04:33:46.664Z,10.81
2023-02-22T04:36:17.338Z,10.88
2023-02-22T04:38:45.911Z,10.95
2023-02-22T04:41:13.501Z,10.90
2023-02-22T04:43:40.909Z,10.87
2023-02-22T04:46:17.839Z,10.72
2023-02-22T04:48:45.285Z,10.65
2023-02-22T04:51:14.453Z,10.73
2023-02-22T04:53:52.276Z,10.82
2023-02-22T04:56:20.237Z,10.93
2023-02-22T04:58:47.787Z,10.77
2023-02-22T05:01:16.605Z,10.80
2023-02-22T05:03:46.927Z,10.75
2023-02-22T05:06:13.934Z,10.61
2023-02-22T05:08:41.314Z,10.66
2023-02-22T05:11:09.685Z,10.67
2023-02-22T05:13:37.125Z,10.68
2023-02-22T05:16:04.819Z,10.59
2023-02-22T05:18:32.216Z,10.63
2023-02-22T05:20:59.607Z,10.59
2023-02-22T05:23:27.077Z,10.60
2023-02-22T05:25:54.435Z,10.69
2023-02-22T05:28:21.797Z,10.61
2023-02-22T05:30:49.133Z,10.52
2023-02-22T05:33:16.457Z,10.60
2023-02-22T05:35:43.900Z,10.58
2023-02-22T05:38:15.011Z,10.66
2023-02-22T05:40:43.078Z,10.46
2023-02-22T05:43:10.593Z,10.47
2023-02-22T05:45:37.985Z,10.46
2023-02-22T05:48:05.605Z,10.45
2023-02-22T05:50:33.290Z,10.35
2023-02-22T05:53:01.253Z,10.49
2023-02-22T05:55:28.185Z,10.49
2023-02-22T05:57:55.129Z,10.48
2023-02-22T06:00:31.785Z,10.62
2023-02-22T06:03:06.126Z,10.60
2023-02-22T06:05:33.920Z,10.33
2023-02-22T06:08:01.702Z,10.49
2023-02-22T06:10:29.023Z,10.39
2023-02-22T06:12:56.861Z,10.39
2023-02-22T06:15:26.614Z,10.44
2023-02-22T06:17:55.519Z,10.32
2023-02-22T06:20:25.570Z,10.35
2023-02-22T06:22:55.235Z,10.20
2023-02-22T06:25:26.489Z,10.29
2023-02-22T06:27:53.874Z,10.35
2023-02-22T06:30:24.082Z,10.34
2023-02-22T06:32:51.131Z,10.27
2023-02-22T06:35:18.484Z,10.27
2023-02-22T06:37:45.900Z,10.30
2023-02-22T06:40:14.287Z,10.48
2023-02-22T06:42:42.032Z,10.47
2023-02-22T06:45:09.926Z,10.38
2023-02-22T06:47:43.888Z,10.55
2023-02-22T06:50:31.446Z,10.60
2023-02-22T06:52:59.056Z,9.74
2023-02-22T06:55:29.227Z,10.38
2023-02-22T06:57:56.701Z,10.39
2023-02-22T07:00:25.938Z,10.51
2023-02-22T07:02:56.235Z,10.38
2023-02-22T07:05:25.431Z,10.43
2023-02-22T07:08:03.283Z,10.04
2023-02-22T07:10:33.319Z,10.13
2023-02-22T07:13:01.230Z,10.22
2023-02-22T07:15:32.631Z,10.43
2023-02-22T07:18:00.238Z,10.27
2023-02-22T07:20:29.618Z,10.23
2023-02-22T07:22:57.016Z,10.39
2023-02-22T07:25:24.932Z,10.33
2023-02-22T07:27:52.919Z,10.17
2023-02-22T07:30:25.281Z,10.48
2023-02-22T07:32:55.114Z,10.68
2023-02-22T07:35:32.308Z,10.74
2023-02-22T07:37:59.922Z,10.68
2023-02-22T07:40:27.979Z,10.77
2023-02-22T07:43:01.632Z,10.83
2023-02-22T07:45:34.501Z,10.93
2023-02-22T07:48:04.111Z,10.96
2023-02-22T07:50:33.109Z,10.93
2023-02-22T07:53:04.279Z,10.88
2023-02-22T07:55:33.421Z,10.89
2023-02-22T07:58:03.737Z,11.02
2023-02-22T08:00:35.859Z,11.11
2023-02-22T08:03:07.143Z,11.00
2023-02-22T08:05:36.935Z,11.01
2023-02-22T08:08:06.089Z,11.14
2023-02-22T08:10:35.094Z,10.91
2023-02-22T08:13:03.933Z,11.10
2023-02-22T08:15:38.054Z,11.39
2023-02-22T08:18:12.518Z,11.42
2023-02-22T08:20:42.147Z,11.42
2023-02-22T08:23:11.126Z,11.18
2023-02-22T08:25:38.508Z,10.97
2023-02-22T08:28:15.474Z,11.36
2023-02-22T08:30:43.752Z,11.41
2023-02-22T08:33:14.378Z,11.40
2023-02-22T08:35:42.354Z,11.49
2023-02-22T08:38:18.939Z,11.80
2023-02-22T08:40:47.380Z,11.45
2023-02-22T08:43:14.390Z,11.49
2023-02-22T08:45:42.231Z,11.53
2023-02-22T08:48:09.620Z,11.59
2023-02-22T08:50:38.071Z,11.39
2023-02-22T08:53:05.849Z,11.47
2023-02-22T08:55:37.356Z,11.42
2023-02-22T08:58:09.225Z,11.13
2023-02-22T09:00:38.774Z,10.74
2023-02-22T09:03:13.897Z,10.66
2023-02-22T09:05:43.170Z,10.80
2023-02-22T09:08:10.670Z,11.02
2023-02-22T09:10:38.276Z,11.72
2023-02-22T09:13:06.289Z,11.53
2023-02-22T09:15:37.699Z,11.77
2023-02-22T09:18:10.646Z,11.86
2023-02-22T09:20:38.028Z,11.40
2023-02-22T09:23:06.884Z,11.89
2023-02-22T09:25:34.328Z,12.21
2023-02-22T09:28:01.924Z,12.32
2023-02-22T09:30:34.886Z,11.83
2023-02-22T09:33:12.688Z,11.82
2023-02-22T09:35:42.358Z,11.66
2023-02-22T09:38:11.541Z,12.17
2023-02-22T09:40:46.718Z,12.46
2023-02-22T09:43:20.073Z,12.23
2023-02-22T09:46:13.488Z,13.22
2023-02-22T09:49:21.431Z,13.42
2023-02-22T09:52:08.309Z,13.13
2023-02-22T09:54:51.909Z,13.36
2023-02-22T09:57:29.135Z,13.33
2023-02-22T10:00:13.197Z,13.34
2023-02-22T10:03:21.643Z,13.84
2023-02-22T10:05:56.892Z,13.57
2023-02-22T10:08:31.190Z,13.56
2023-02-22T10:11:06.756Z,13.56
2023-02-22T10:14:15.053Z,13.91
2023-02-22T10:17:00.729Z,13.91
2023-02-22T10:20:06.124Z,14.39
2023-02-22T10:22:45.588Z,14.29
2023-02-22T10:25:14.780Z,14.65
2023-02-22T10:28:00.093Z,14.27
2023-02-22T10:30:38.606Z,14.57
2023-02-22T10:33:19.228Z,14.63
2023-02-22T10:35:47.351Z,14.32
2023-02-22T10:38:20.119Z,14.97
2023-02-22T10:40:51.324Z,14.60
2023-02-22T10:43:18.781Z,15.17
2023-02-22T10:45:46.155Z,15.05
2023-02-22T10:48:21.077Z,15.28
2023-02-22T10:50:48.736Z,14.68
2023-02-22T10:53:16.129Z,14.79
2023-02-22T10:56:22.817Z,15.38
2023-02-22T10:58:52.505Z,15.20
2023-02-22T11:01:40.739Z,15.64
2023-02-22T11:04:18.507Z,15.29
2023-02-22T11:07:10.320Z,15.57
2023-02-22T11:09:54.397Z,15.13
2023-02-22T11:12:37.665Z,15.58
2023-02-22T11:15:16.764Z,15.68
2023-02-22T11:17:45.568Z,15.82
2023-02-22T11:20:34.574Z,16.02
2023-02-22T11:23:04.094Z,15.77
2023-02-22T11:25:37.663Z,15.88
2023-02-22T11:28:14.986Z,16.27
2023-02-22T11:30:45.641Z,16.38
2023-02-22T11:33:25.727Z,16.59
2023-02-22T11:35:59.382Z,15.98
2023-02-22T11:38:31.927Z,16.18
2023-02-22T11:41:16.081Z,16.56
2023-02-22T11:43:48.241Z,16.52
2023-02-22T11:46:26.496Z,16.17
2023-02-22T11:49:14.087Z,15.73
2023-02-22T11:51:55.904Z,16.20
2023-02-22T11:54:34.581Z,16.21
2023-02-22T11:57:11.021Z,16.02
2023-02-22T11:59:41.146Z,15.92
2023-02-22T12:02:34.567Z,16.23
2023-02-22T12:05:08.230Z,17.72
2023-02-22T12:08:19.323Z,19.18
2023-02-22T12:11:18.441Z,19.62
2023-02-22T12:13:54.249Z,18.60
2023-02-22T12:16:32.067Z,17.60
2023-02-22T12:19:09.028Z,18.58
2023-02-22T12:21:42.528Z,18.13
2023-02-22T12:24:20.398Z,16.97
2023-02-22T12:27:16.510Z,16.38
2023-02-22T12:30:20.145Z,16.83
2023-02-22T12:32:52.808Z,16.11
2023-02-22T12:35:39.342Z,16.47
2023-02-22T12:38:23.162Z,16.28
2023-02-22T12:41:40.630Z,16.68
2023-02-22T12:44:33.451Z,16.42
2023-02-22T12:47:02.416Z,16.18
2023-02-22T12:49:49.726Z,16.66
2023-02-22T12:52:33.522Z,16.40
2023-02-22T12:55:47.924Z,16.99
2023-02-22T12:58:25.893Z,16.89
2023-02-22T13:01:07.194Z,16.35
2023-02-22T13:03:43.874Z,16.73
2023-02-22T13:06:53.490Z,16.59
2023-02-22T13:09:54.818Z,16.74
2023-02-22T13:12:52.351Z,16.35
2023-02-22T13:15:30.380Z,16.30
2023-02-22T13:18:32.196Z,17.52
2023-02-22T13:21:43.988Z,19.02
2023-02-22T13:24:27.265Z,18.23
2023-02-22T13:27:09.963Z,17.72
2023-02-22T13:29:44.897Z,17.71
2023-02-22T13:32:27.429Z,20.50
2023-02-22T13:35:28.957Z,23.86
2023-02-22T13:38:00.550Z,23.84
2023-02-22T13:40:46.286Z,21.14
2023-02-22T13:43:41.539Z,19.48
2023-02-22T13:46:19.128Z,19.54
2023-02-22T13:49:18.444Z,19.74
2023-02-22T13:51:51.723Z,18.59
2023-02-22T13:54:36.725Z,18.20
2023-02-22T13:57:27.689Z,17.80
2023-02-22T14:00:17.519Z,17.49
2023-02-22T14:03:14.185Z,18.18
2023-02-22T14:05:41.658Z,19.20
2023-02-22T14:08:17.528Z,19.48
2023-02-22T14:10:46.596Z,20.19
2023-02-22T14:13:17.164Z,20.79
2023-02-22T14:16:05.147Z,20.98
2023-02-22T14:18:45.148Z,21.69
2023-02-22T14:21:22.812Z,21.25
2023-02-22T14:23:52.361Z,19.86
2023-02-22T14:26:33.899Z,19.60
2023-02-22T14:29:02.771Z,19.39
2023-02-22T14:31:56.530Z,20.64
2023-02-22T14:34:54.006Z,19.87
2023-02-22T14:37:33.923Z,19.40
2023-02-22T14:40:27.880Z,19.02
2023-02-22T14:43:19.922Z,20.16
2023-02-22T14:45:53.505Z,19.79
2023-02-22T14:48:40.069Z,19.12
2023-02-22T14:51:29.923Z,18.85
2023-02-22T14:54:43.843Z,19.07
2023-02-22T14:57:29.611Z,18.60
2023-02-22T15:00:31.189Z,18.36
2023-02-22T15:03:00.823Z,18.11
2023-02-22T15:05:38.377Z,17.87
2023-02-22T15:08:09.533Z,17.99
2023-02-22T15:10:45.762Z,17.56
2023-02-22T15:13:18.610Z,17.74
2023-02-22T15:15:55.640Z,17.44
2023-02-22T15:18:39.846Z,17.53
2023-02-22T15:21:16.233Z,17.29
2023-02-22T15:23:57.075Z,16.94
2023-02-22T15:26:24.506Z,16.52
2023-02-22T15:28:59.784Z,17.39
2023-02-22T15:31:27.154Z,16.67
2023-02-22T15:33:55.428Z,16.59
2023-02-22T15:36:30.975Z,16.87
2023-02-22T15:38:58.502Z,16.64
2023-02-22T15:41:32.761Z,16.53
2023-02-22T15:44:23.073Z,16.80
2023-02-22T15:46:51.014Z,16.26
2023-02-22T15:49:23.240Z,16.41
2023-02-22T15:52:05.951Z,16.55
2023-02-22T15:54:44.331Z,16.37
2023-02-22T15:57:16.814Z,16.37
2023-02-22T15:59:50.110Z,16.38
2023-02-22T16:02:42.348Z,16.16
2023-02-22T16:05:17.590Z,16.14
2023-02-22T16:07:50.773Z,16.03
2023-02-22T16:10:29.781Z,16.41
2023-02-22T16:13:32.714Z,16.27
2023-02-22T16:16:20.768Z,16.26
2023-02-22T16:18:48.439Z,15.94
2023-02-22T16:21:21.836Z,16.15
2023-02-22T16:24:01.328Z,16.03
2023-02-22T16:26:35.013Z,15.89
2023-02-22T16:29:09.634Z,15.52
2023-02-22T16:31:40.524Z,15.41
2023-02-22T16:34:08.746Z,15.36
2023-02-22T16:36:49.062Z,15.41
2023-02-22T16:39:30.653Z,15.29
2023-02-22T16:42:01.496Z,14.81
2023-02-22T16:44:29.282Z,15.25
2023-02-22T16:46:59.735Z,15.18
2023-02-22T16:49:27.501Z,15.07
2023-02-22T16:51:59.752Z,15.22
2023-02-22T16:54:36.405Z,15.77
2023-02-22T16:57:04.984Z,15.92
2023-02-22T16:59:37.241Z,15.49
2023-02-22T17:02:07.598Z,15.36
2023-02-22T17:04:34.764Z,14.71
2023-02-22T17:07:04.808Z,14.96
2023-02-22T17:09:32.948Z,14.95
2023-02-22T17:12:00.525Z,15.00
2023-02-22T17:14:34.649Z,15.98
2023-02-22T17:17:01.908Z,16.16
2023-02-22T17:19:29.610Z,16.27
2023-02-22T17:21:57.116Z,15.94
2023-02-22T17:24:29.119Z,15.11
2023-02-22T17:26:57.455Z,14.61
2023-02-22T17:29:24.826Z,14.91
2023-02-22T17:31:52.905Z,15.89
2023-02-22T17:34:20.395Z,15.60
2023-02-22T17:36:48.469Z,14.96
2023-02-22T17:39:16.274Z,14.55
2023-02-22T17:41:43.681Z,15.10
2023-02-22T17:44:11.395Z,15.52
2023-02-22T17:46:40.816Z,15.88
2023-02-22T17:49:08.431Z,15.65
2023-02-22T17:51:35.433Z,15.20
2023-02-22T17:54:02.386Z,15.61
2023-02-22T17:56:29.764Z,15.10
2023-02-22T17:58:57.160Z,14.88
2023-02-22T18:01:32.258Z,15.90
2023-02-22T18:04:02.509Z,15.69
2023-02-22T18:06:32.607Z,15.82
2023-02-22T18:09:01.403Z,16.05
2023-02-22T18:11:32.493Z,16.01
2023-02-22T18:14:00.025Z,14.41
2023-02-22T18:16:27.650Z,14.05
2023-02-22T18:18:56.228Z,14.64
2023-02-22T18:21:24.033Z,15.63
2023-02-22T18:23:51.549Z,15.72
2023-02-22T18:26:20.951Z,15.16
2023-02-22T18:28:48.758Z,15.37
2023-02-22T18:31:19.509Z,15.85
2023-02-22T18:33:51.884Z,15.71
2023-02-22T18:36:23.030Z,15.98
2023-02-22T18:38:53.687Z,15.83
2023-02-22T18:41:25.913Z,15.90
2023-02-22T18:43:55.232Z,16.04
2023-02-22T18:46:24.531Z,15.51
2023-02-22T18:48:56.535Z,15.15
2023-02-22T18:51:24.755Z,15.59
2023-02-22T18:53:59.741Z,14.21
2023-02-22T18:56:30.073Z,15.10
2023-02-22T18:59:00.847Z,15.17
2023-02-22T19:01:29.443Z,15.28
2023-02-22T19:03:57.231Z,15.04
2023-02-22T19:06:24.718Z,15.50
2023-02-22T19:08:54.766Z,15.50
2023-02-22T19:11:24.648Z,15.68
2023-02-22T19:13:56.972Z,15.67
2023-02-22T19:16:26.423Z,15.71
2023-02-22T19:18:58.100Z,15.28
2023-02-22T19:21:28.479Z,15.56
2023-02-22T19:24:01.365Z,15.59
2023-02-22T19:26:29.495Z,15.45
2023-02-22T19:28:59.518Z,15.57
2023-02-22T19:31:31.537Z,15.75
2023-02-22T19:34:04.476Z,15.78
2023-02-22T19:36:31.897Z,15.64
2023-02-22T19:39:02.211Z,15.56
2023-02-22T19:41:30.150Z,15.38
2023-02-22T19:43:58.059Z,15.49
2023-02-22T19:46:25.515Z,15.48
2023-02-22T19:48:55.298Z,15.45
2023-02-22T19:51:26.339Z,15.41
2023-02-22T19:53:56.128Z,14.98
2023-02-22T19:56:27.079Z,15.02
2023-02-22T19:58:56.401Z,15.23
2023-02-22T20:01:29.993Z,15.24
2023-02-22T20:04:00.260Z,15.37
2023-02-22T20:06:34.585Z,15.38
2023-02-22T20:09:02.744Z,15.30
2023-02-22T20:11:30.225Z,15.38
2023-02-22T20:13:57.622Z,15.37
2023-02-22T20:16:25.243Z,15.19
2023-02-22T20:18:54.427Z,14.81
2023-02-22T20:21:33.428Z,14.87
2023-02-22T20:24:03.951Z,15.13
2023-02-22T20:26:33.912Z,15.32
2023-02-22T20:29:03.972Z,15.18
2023-02-22T20:31:32.650Z,14.50
2023-02-22T20:34:01.536Z,14.83
2023-02-22T20:36:30.971Z,15.01
2023-02-22T20:38:59.932Z,14.84
2023-02-22T20:41:33.237Z,15.11
2023-02-22T20:44:02.203Z,15.10
2023-02-22T20:46:36.098Z,15.07
2023-02-22T20:49:07.443Z,15.07
2023-02-22T20:51:35.431Z,15.11
2023-02-22T20:54:03.035Z,14.69
2023-02-22T20:56:31.953Z,14.99
2023-02-22T20:59:01.890Z,15.01
2023-02-22T21:01:29.617Z,15.00
2023-02-22T21:04:06.346Z,15.12
2023-02-22T21:06:35.568Z,14.90
2023-02-22T21:09:07.259Z,14.85
2023-02-22T21:11:34.926Z,14.53
2023-02-22T21:14:03.010Z,14.12
2023-02-22T21:16:35.290Z,13.99
2023-02-22T21:19:06.437Z,14.08
2023-02-22T21:21:34.990Z,14.23
2023-02-22T21:24:02.390Z,14.55
2023-02-22T21:26:32.455Z,14.79
2023-02-22T21:29:05.963Z,14.76
2023-02-22T21:31:34.555Z,14.83
2023-02-22T21:34:02.160Z,14.63
2023-02-22T21:36:30.189Z,14.50
2023-02-22T21:39:00.442Z,14.30
2023-02-22T21:41:30.245Z,14.63
2023-02-22T21:43:59.034Z,14.49
2023-02-22T21:46:29.234Z,14.53
2023-02-22T21:48:58.612Z,14.64
2023-02-22T21:51:33.496Z,14.67
2023-02-22T21:54:09.761Z,14.49
2023-02-22T21:56:39.855Z,13.86
2023-02-22T21:59:14.897Z,14.21
2023-02-22T22:01:47.440Z,14.18
2023-02-22T22:04:21.005Z,14.32
2023-02-22T22:06:51.543Z,13.75
2023-02-22T22:09:21.804Z,14.32
2023-02-22T22:11:53.681Z,13.90
2023-02-22T22:14:23.513Z,14.04
2023-02-22T22:16:58.531Z,14.13
2023-02-22T22:19:30.331Z,14.05
2023-02-22T22:21:58.216Z,14.18
2023-02-22T22:24:26.064Z,14.16
2023-02-22T22:26:56.624Z,14.13
2023-02-22T22:29:28.387Z,14.10
2023-02-22T22:31:56.142Z,14.13
2023-02-22T22:34:29.423Z,14.10
2023-02-22T22:37:00.382Z,14.26
2023-02-22T22:39:28.026Z,14.10
2023-02-22T22:41:55.485Z,13.96
2023-02-22T22:44:23.090Z,13.92
2023-02-22T22:46:53.474Z,13.84
2023-02-22T22:49:23.269Z,13.93
2023-02-22T22:51:51.124Z,13.97
2023-02-22T22:54:18.470Z,14.11
2023-02-22T22:56:45.411Z,14.17
2023-02-22T22:59:13.445Z,13.95
2023-02-22T23:01:44.517Z,13.99
2023-02-22T23:04:16.288Z,13.96
2023-02-22T23:06:51.992Z,13.88
2023-02-22T23:09:30.402Z,13.82
2023-02-22T23:12:08.603Z,13.61
2023-02-22T23:14:45.405Z,14.05
2023-02-22T23:17:16.088Z,13.80
2023-02-22T23:19:45.087Z,13.82
2023-02-22T23:22:14.153Z,13.51
2023-02-22T23:24:44.319Z,13.51
2023-02-22T23:27:12.254Z,13.65
2023-02-22T23:29:42.560Z,13.77
2023-02-22T23:32:10.118Z,13.84
2023-02-22T23:34:41.053Z,13.70
2023-02-22T23:37:10.711Z,13.65
2023-02-22T23:39:38.684Z,13.70
2023-02-22T23:42:08.731Z,13.73
2023-02-22T23:44:36.119Z,13.65
2023-02-22T23:47:03.839Z,13.66
2023-02-22T23:49:38.417Z,13.84
2023-02-22T23:52:08.227Z,13.81
2023-02-22T23:54:40.243Z,13.94
2023-02-22T23:57:08.795Z,14.01
2023-02-22T23:59:36.419Z,13.98
